Time;durP1;ratioP1;P1;durP2;ratioP2;P2;SDS_P1;SDS_P2;PMS_P1;PMS_P2;Temp;Humidity;BMP_temperature;BMP_pressure;BME280_temperature;BME280_humidity;BME280_pressure;Samples;Min_cycle;Max_cycle;Signal;HPM_P1;HPM_P2
2022/12/03 00:00:34;;;;;;;319.73;305.47;;;1.10;99.90;;;;;;5015882;28;20473;-79
2022/12/03 00:03:01;;;;;;;289.53;276.60;;;1.20;99.90;;;;;;5015979;28;20950;-79
2022/12/03 00:05:27;;;;;;;257.97;246.63;;;1.30;99.90;;;;;;5015709;28;20445;-81
2022/12/03 00:07:54;;;;;;;246.70;236.13;;;1.30;99.90;;;;;;5015460;28;20445;-79
2022/12/03 00:10:21;;;;;;;213.43;204.03;;;1.40;99.90;;;;;;5014981;28;20479;-76
2022/12/03 00:12:47;;;;;;;192.03;183.40;;;1.40;99.90;;;;;;5015147;28;20460;-79
2022/12/03 00:15:14;;;;;;;166.10;158.40;;;1.40;99.90;;;;;;5015035;28;20472;-79
2022/12/03 00:17:42;;;;;;;153.27;146.23;;;1.40;99.90;;;;;;5015200;28;20457;-79
2022/12/03 00:20:16;;;;;;;144.53;136.83;;;1.50;99.90;;;;;;5014862;28;20505;-79
2022/12/03 00:22:43;;;;;;;128.63;121.77;;;1.50;99.90;;;;;;5015163;28;20454;-79
2022/12/03 00:25:10;;;;;;;119.37;113.10;;;1.40;99.90;;;;;;5015243;28;20464;-79
2022/12/03 00:27:36;;;;;;;108.83;103.03;;;1.30;99.90;;;;;;5016170;28;20454;-79
2022/12/03 00:30:04;;;;;;;108.60;102.47;;;1.30;99.90;;;;;;5015682;28;20481;-80
2022/12/03 00:32:31;;;;;;;123.30;117.33;;;1.20;99.90;;;;;;5015833;28;20462;-79
2022/12/03 00:34:59;;;;;;;124.80;118.80;;;1.10;99.90;;;;;;5015950;28;21013;-79
2022/12/03 00:37:25;;;;;;;147.47;140.67;;;1.10;99.90;;;;;;5016252;28;20464;-79
2022/12/03 00:39:52;;;;;;;156.17;148.77;;;1.00;99.90;;;;;;5015795;28;20820;-80
2022/12/03 00:42:19;;;;;;;163.27;155.97;;;0.80;99.90;;;;;;5015649;28;20457;-79
2022/12/03 00:44:45;;;;;;;161.90;154.50;;;0.70;99.90;;;;;;5015855;28;20445;-81
2022/12/03 00:47:12;;;;;;;183.20;175.43;;;0.60;99.90;;;;;;5015848;28;20460;-79
2022/12/03 00:49:40;;;;;;;213.27;204.13;;;0.70;99.90;;;;;;5015795;28;20496;-79
2022/12/03 00:52:08;;;;;;;273.50;262.50;;;0.50;99.90;;;;;;5015719;28;20457;-79
2022/12/03 00:54:34;;;;;;;297.47;285.57;;;0.40;99.90;;;;;;5015308;28;20832;-79
2022/12/03 00:57:01;;;;;;;331.60;318.50;;;0.50;99.90;;;;;;5015577;28;20453;-79
2022/12/03 00:59:28;;;;;;;365.38;351.02;;;0.50;99.90;;;;;;5015620;28;20868;-79
2022/12/03 01:01:54;;;;;;;369.57;355.00;;;0.50;99.90;;;;;;5015503;28;20190;-80
2022/12/03 01:04:21;;;;;;;370.43;355.90;;;0.60;99.90;;;;;;5015462;28;20457;-79
2022/12/03 01:06:48;;;;;;;392.07;376.27;;;0.70;99.90;;;;;;5015484;28;20449;-79
2022/12/03 01:09:16;;;;;;;395.67;379.27;;;0.80;99.90;;;;;;5015410;28;20950;-79
2022/12/03 01:11:43;;;;;;;415.97;398.27;;;0.90;99.90;;;;;;5014275;28;20993;-80
2022/12/03 01:14:13;;;;;;;408.23;391.07;;;0.90;99.90;;;;;;5015057;28;20477;-79
2022/12/03 01:16:40;;;;;;;403.20;386.00;;;1.00;99.90;;;;;;5015123;28;20460;-79
2022/12/03 01:19:09;;;;;;;385.23;368.77;;;1.10;99.90;;;;;;5014939;28;21012;-79
2022/12/03 01:21:37;;;;;;;385.13;368.27;;;1.10;99.90;;;;;;5014450;28;20449;-79
2022/12/03 01:24:04;;;;;;;363.90;348.63;;;1.20;99.90;;;;;;5014369;28;20457;-77
2022/12/03 01:26:32;;;;;;;327.90;314.43;;;1.30;99.90;;;;;;5014276;28;20449;-79
2022/12/03 01:28:59;;;;;;;318.00;304.70;;;1.30;99.90;;;;;;5014417;28;20453;-78
2022/12/03 01:34:10;;;;;;;277.13;266.07;;;1.50;99.90;;;;;;5013833;28;21061;-79
2022/12/03 01:36:36;;;;;;;249.63;239.23;;;1.60;99.90;;;;;;5013854;28;20460;-79
2022/12/03 01:39:04;;;;;;;247.33;237.27;;;1.60;99.90;;;;;;5013913;28;20456;-78
2022/12/03 01:41:33;;;;;;;223.40;214.33;;;1.60;99.90;;;;;;5013964;28;20464;-79
2022/12/03 01:44:01;;;;;;;202.07;193.70;;;1.70;99.90;;;;;;5013952;28;20460;-79
2022/12/03 01:46:34;;;;;;;185.30;177.60;;;1.70;99.90;;;;;;5014414;28;20511;-79
2022/12/03 01:49:01;;;;;;;147.93;141.40;;;1.80;99.90;;;;;;5013809;28;20977;-79
2022/12/03 01:51:29;;;;;;;124.33;118.47;;;1.80;99.90;;;;;;5013583;28;20449;-79
2022/12/03 01:53:55;;;;;;;116.40;110.40;;;1.90;99.90;;;;;;5014261;28;20452;-79
2022/12/03 01:56:22;;;;;;;97.67;92.57;;;1.80;99.90;;;;;;5013889;28;20460;-79
2022/12/03 01:58:51;;;;;;;90.00;85.10;;;1.90;99.90;;;;;;5014015;28;20464;-78
2022/12/03 02:01:19;;;;;;;78.00;72.93;;;2.00;99.90;;;;;;5012763;28;20501;-81
2022/12/03 02:03:46;;;;;;;78.20;74.27;;;2.00;99.90;;;;;;5013065;28;20453;-79
2022/12/03 02:06:16;;;;;;;76.27;71.17;;;2.10;99.90;;;;;;5013986;28;20456;-79
2022/12/03 02:08:43;;;;;;;60.73;57.10;;;2.00;99.90;;;;;;5012977;28;20555;-79
2022/12/03 02:11:18;;;;;;;58.23;54.33;;;2.00;99.90;;;;;;5013375;28;21013;-79
2022/12/03 02:13:47;;;;;;;55.50;51.53;;;2.10;99.90;;;;;;5013960;28;20477;-79
2022/12/03 02:16:15;;;;;;;51.70;47.80;;;2.10;99.90;;;;;;5013359;28;20469;-79
2022/12/03 02:18:43;;;;;;;37.67;34.70;;;2.10;99.90;;;;;;5013826;28;20460;-79
2022/12/03 02:21:17;;;;;;;42.83;39.13;;;2.00;99.90;;;;;;5012746;28;20473;-79
2022/12/03 02:23:53;;;;;;;42.13;38.80;;;2.10;99.90;;;;;;5013727;28;20463;-79
2022/12/03 02:26:21;;;;;;;33.90;30.90;;;2.20;99.90;;;;;;5013600;28;20452;-79
2022/12/03 02:28:48;;;;;;;34.73;31.13;;;2.20;99.90;;;;;;5013839;28;20456;-79
2022/12/03 02:31:15;;;;;;;33.67;30.27;;;2.20;99.90;;;;;;5012976;28;20477;-79
2022/12/03 02:33:42;;;;;;;30.60;27.37;;;2.20;99.90;;;;;;5013637;28;20460;-79
2022/12/03 02:36:09;;;;;;;29.40;25.83;;;2.20;99.90;;;;;;5013540;28;20483;-79
2022/12/03 02:38:36;;;;;;;30.07;27.20;;;2.20;99.90;;;;;;5013527;28;20449;-79
2022/12/03 02:41:07;;;;;;;26.67;23.87;;;2.20;99.90;;;;;;5013274;28;20478;-79
2022/12/03 02:43:34;;;;;;;30.87;25.90;;;2.20;99.90;;;;;;5013340;28;20822;-79
2022/12/03 02:46:03;;;;;;;28.33;23.43;;;2.20;99.90;;;;;;5014010;28;20496;-79
2022/12/03 02:48:33;;;;;;;29.63;24.00;;;2.10;99.90;;;;;;5013351;28;20460;-79
2022/12/03 02:51:03;;;;;;;26.97;22.10;;;2.10;99.90;;;;;;5013006;28;21005;-79
2022/12/03 02:53:34;;;;;;;24.17;21.23;;;2.10;99.90;;;;;;5013343;28;20454;-78
2022/12/03 02:56:03;;;;;;;28.93;24.33;;;2.10;99.90;;;;;;5013044;28;20477;-79
2022/12/03 02:58:32;;;;;;;29.57;25.40;;;2.00;99.90;;;;;;5013586;28;20461;-79
2022/12/03 03:01:01;;;;;;;33.00;29.50;;;2.00;99.90;;;;;;5013349;28;20472;-79
2022/12/03 03:03:29;;;;;;;36.00;32.27;;;2.00;99.90;;;;;;5013202;28;20464;-79
2022/12/03 03:05:56;;;;;;;34.13;30.87;;;2.00;99.90;;;;;;5013655;28;20449;-79
2022/12/03 03:08:25;;;;;;;32.47;29.37;;;2.10;99.90;;;;;;5013185;28;20552;-79
2022/12/03 03:10:52;;;;;;;30.07;27.07;;;2.00;99.90;;;;;;5012835;28;20473;-79
2022/12/03 03:13:20;;;;;;;21.73;19.97;;;2.10;99.90;;;;;;5012994;28;20449;-80
2022/12/03 03:15:47;;;;;;;32.43;27.70;;;2.20;99.90;;;;;;5012950;28;20484;-79
2022/12/03 03:18:16;;;;;;;30.47;27.17;;;2.20;99.90;;;;;;5013688;28;20457;-79
2022/12/03 03:20:44;;;;;;;31.20;28.00;;;2.10;99.90;;;;;;5016646;28;20480;-79
2022/12/03 03:23:15;;;;;;;31.40;28.00;;;2.10;99.90;;;;;;5017256;28;20461;-79
2022/12/03 03:25:45;;;;;;;34.63;31.27;;;2.10;99.90;;;;;;5017243;28;20456;-79
2022/12/03 03:28:13;;;;;;;41.53;37.63;;;2.00;99.90;;;;;;5017277;28;20445;-79
2022/12/03 03:30:43;;;;;;;42.77;39.07;;;2.00;99.90;;;;;;5016406;28;20480;-80
2022/12/03 03:33:10;;;;;;;43.90;39.80;;;2.00;99.90;;;;;;5016677;28;20456;-79
2022/12/03 03:35:39;;;;;;;40.63;37.43;;;2.00;99.90;;;;;;5017149;28;20488;-79
2022/12/03 03:38:07;;;;;;;45.20;41.37;;;2.00;99.90;;;;;;5016912;28;20457;-79
2022/12/03 03:40:34;;;;;;;46.40;42.30;;;2.10;99.90;;;;;;5016501;28;20477;-79
2022/12/03 03:43:01;;;;;;;47.80;43.43;;;2.00;99.90;;;;;;5016904;28;20459;-79
2022/12/03 03:45:28;;;;;;;45.37;41.63;;;2.10;99.90;;;;;;5016198;28;20445;-79
2022/12/03 03:47:57;;;;;;;45.07;41.00;;;2.00;99.90;;;;;;5022607;28;20457;-79
2022/12/03 03:50:24;;;;;;;46.67;42.97;;;2.00;99.90;;;;;;5016824;28;20858;-79
2022/12/03 03:52:52;;;;;;;47.63;43.87;;;2.00;99.90;;;;;;5016274;28;20457;-79
2022/12/03 03:55:20;;;;;;;53.90;49.80;;;2.00;99.90;;;;;;5016579;28;20472;-79
2022/12/03 03:57:47;;;;;;;51.17;47.20;;;2.00;99.90;;;;;;5016695;28;20453;-79
2022/12/03 04:00:15;;;;;;;119.27;83.40;;;2.00;99.90;;;;;;5016817;28;20480;-80
2022/12/03 04:02:42;;;;;;;55.63;51.53;;;2.00;99.90;;;;;;5017285;28;20457;-80
2022/12/03 04:05:15;;;;;;;54.97;50.60;;;2.00;99.90;;;;;;5016431;28;20493;-79
2022/12/03 04:07:41;;;;;;;48.43;44.73;;;2.10;99.90;;;;;;5016637;28;20453;-79
2022/12/03 04:12:54;;;;;;;47.97;44.27;;;2.20;99.90;;;;;;5016680;28;20469;-80
2022/12/03 04:13:04;;;;;;;45.63;41.97;;;2.00;99.90;;;;;;5015399;28;20476;-80
2022/12/03 04:15:31;;;;;;;44.97;40.23;;;2.10;99.90;;;;;;5016917;28;20559;-80
2022/12/03 04:20:42;;;;;;;48.90;45.20;;;2.00;99.90;;;;;;5016786;28;20532;-79
2022/12/03 04:23:08;;;;;;;52.77;48.70;;;2.00;99.90;;;;;;5010353;28;20450;-82
2022/12/03 04:36:30;;;;;;;69.77;63.07;;;1.90;99.90;;;;;;5013261;28;20542;-79
2022/12/03 04:38:57;;;;;;;53.87;49.97;;;1.90;99.90;;;;;;5017181;28;20449;-80
2022/12/03 04:41:25;;;;;;;56.77;52.37;;;2.00;99.90;;;;;;5017237;28;20461;-82
2022/12/03 04:46:36;;;;;;;63.93;58.90;;;1.90;99.90;;;;;;5016577;28;20457;-80
2022/12/03 04:49:03;;;;;;;62.60;58.27;;;1.90;99.90;;;;;;5015070;28;20460;-79
2022/12/03 04:51:30;;;;;;;59.40;54.90;;;2.00;99.90;;;;;;5016178;28;20460;-80
2022/12/03 04:53:56;;;;;;;61.60;56.47;;;1.90;99.90;;;;;;5013167;28;20480;-80
2022/12/03 04:56:24;;;;;;;58.97;54.57;;;2.00;99.90;;;;;;4996936;28;20477;-79
2022/12/03 04:58:51;;;;;;;60.30;56.00;;;1.90;99.90;;;;;;4996785;28;20458;-79
2022/12/03 05:01:22;;;;;;;67.27;62.37;;;2.00;99.90;;;;;;4996367;28;20474;-78
2022/12/03 05:03:49;;;;;;;66.77;61.93;;;2.00;99.90;;;;;;5001075;28;20458;-84
2022/12/03 05:06:16;;;;;;;67.67;63.37;;;2.00;99.90;;;;;;5003861;28;20445;-79
2022/12/03 05:08:42;;;;;;;66.30;61.53;;;2.10;99.90;;;;;;5004022;28;20461;-80
2022/12/03 05:11:09;;;;;;;57.93;53.40;;;2.00;99.90;;;;;;4995374;28;20474;-79
2022/12/03 05:13:37;;;;;;;51.40;47.13;;;2.00;99.90;;;;;;5012658;28;20988;-79
2022/12/03 05:16:04;;;;;;;52.23;47.50;;;2.10;99.90;;;;;;5015185;28;20488;-79
2022/12/03 05:18:31;;;;;;;45.60;41.70;;;2.00;99.90;;;;;;5015721;28;20456;-79
2022/12/03 05:20:56;;;;;;;40.33;36.90;;;2.10;99.90;;;;;;5013770;28;20484;-79
2022/12/03 05:23:24;;;;;;;43.17;39.47;;;2.10;99.90;;;;;;5013448;28;20823;-78
2022/12/03 05:25:51;;;;;;;41.37;37.37;;;2.00;99.90;;;;;;5013312;28;20202;-79
2022/12/03 05:28:20;;;;;;;38.57;34.93;;;2.10;99.90;;;;;;5013618;28;20453;-79
2022/12/03 05:30:49;;;;;;;39.30;35.57;;;2.00;99.90;;;;;;5014931;28;21017;-80
2022/12/03 05:33:15;;;;;;;35.43;31.90;;;2.00;99.90;;;;;;5013840;28;20456;-79
2022/12/03 05:35:42;;;;;;;40.47;36.67;;;1.90;99.90;;;;;;4998060;28;20485;-79
2022/12/03 05:38:11;;;;;;;46.57;42.17;;;1.90;99.90;;;;;;4993752;28;20459;-79
2022/12/03 05:40:40;;;;;;;42.47;38.37;;;2.00;99.90;;;;;;4993551;28;20553;-79
2022/12/03 05:43:05;;;;;;;42.87;38.97;;;1.90;99.90;;;;;;4994874;28;20450;-80
2022/12/03 05:45:39;;;;;;;45.17;40.90;;;1.90;99.90;;;;;;4996221;28;20461;-80
2022/12/03 05:48:09;;;;;;;50.40;46.07;;;1.90;99.90;;;;;;4996133;28;20218;-80
2022/12/03 05:50:38;;;;;;;50.13;45.93;;;2.00;99.90;;;;;;5009532;28;20469;-82
2022/12/03 05:53:05;;;;;;;45.53;41.53;;;1.90;99.90;;;;;;5015631;28;20980;-80
2022/12/03 05:55:32;;;;;;;40.43;36.53;;;1.90;99.90;;;;;;5015752;28;20480;-80
2022/12/03 05:57:59;;;;;;;40.93;31.90;;;2.00;99.90;;;;;;5015638;28;20522;-80
2022/12/03 06:00:28;;;;;;;38.33;31.97;;;2.00;99.90;;;;;;5014853;28;20469;-79
2022/12/03 06:02:55;;;;;;;34.87;27.60;;;2.00;99.90;;;;;;5015985;28;20455;-80
2022/12/03 06:05:27;;;;;;;39.20;26.13;;;2.00;99.90;;;;;;5014520;28;20445;-80
2022/12/03 06:07:54;;;;;;;27.20;21.17;;;2.00;99.90;;;;;;5011874;28;20450;-79
2022/12/03 06:10:23;;;;;;;27.93;23.23;;;2.00;99.90;;;;;;5013115;28;20576;-77
2022/12/03 06:12:50;;;;;;;33.13;21.50;;;2.00;99.90;;;;;;5012933;28;20460;-79
2022/12/03 06:15:18;;;;;;;29.23;22.10;;;2.00;99.90;;;;;;5012686;28;20445;-79
2022/12/03 06:17:45;;;;;;;33.83;24.43;;;2.00;99.90;;;;;;5013767;28;20458;-79
2022/12/03 06:20:14;;;;;;;34.87;20.80;;;2.00;99.90;;;;;;5012337;28;20472;-79
2022/12/03 06:22:42;;;;;;;30.90;21.43;;;2.00;99.90;;;;;;5012800;28;20464;-79
2022/12/03 06:25:10;;;;;;;41.53;24.53;;;2.00;99.90;;;;;;5012800;28;20961;-79
2022/12/03 06:27:37;;;;;;;35.03;21.20;;;1.90;99.90;;;;;;5013220;28;20553;-79
2022/12/03 06:30:05;;;;;;;30.53;18.63;;;1.90;99.90;;;;;;5012498;28;20481;-79
2022/12/03 06:32:32;;;;;;;27.50;16.77;;;2.00;99.90;;;;;;5012138;28;20466;-79
2022/12/03 06:34:58;;;;;;;34.47;20.23;;;2.00;99.90;;;;;;5012098;28;20461;-79
2022/12/03 06:37:25;;;;;;;36.13;21.30;;;1.90;99.90;;;;;;5012040;28;20469;-79
2022/12/03 06:39:53;;;;;;;29.07;20.90;;;1.90;99.90;;;;;;5011975;28;20480;-79
2022/12/03 06:42:21;;;;;;;31.83;21.07;;;1.80;99.90;;;;;;5011757;28;20521;-79
2022/12/03 06:44:48;;;;;;;33.67;26.20;;;1.70;99.90;;;;;;5012324;28;20457;-79
2022/12/03 06:47:14;;;;;;;31.37;27.87;;;1.60;99.90;;;;;;5011639;28;20819;-79
2022/12/03 06:49:41;;;;;;;45.23;40.60;;;1.50;99.90;;;;;;5011949;28;20469;-79
2022/12/03 06:52:09;;;;;;;49.20;44.23;;;1.30;99.90;;;;;;5011828;28;20896;-78
2022/12/03 06:54:36;;;;;;;50.83;46.60;;;1.30;99.90;;;;;;5013504;28;20981;-78
2022/12/03 06:57:04;;;;;;;53.10;48.43;;;1.30;99.90;;;;;;5015060;28;20483;-78
2022/12/03 06:59:36;;;;;;;55.10;50.50;;;1.30;99.90;;;;;;5015802;28;20556;-78
2022/12/03 07:02:03;;;;;;;59.20;54.17;;;1.20;99.90;;;;;;5016004;28;20457;-78
2022/12/03 07:04:30;;;;;;;62.70;57.90;;;1.20;99.90;;;;;;5015895;28;20456;-78
2022/12/03 07:06:56;;;;;;;62.03;57.40;;;1.20;99.90;;;;;;5016023;28;20453;-78
2022/12/03 07:09:23;;;;;;;66.63;61.93;;;1.00;99.90;;;;;;5015667;28;20468;-78
2022/12/03 07:11:50;;;;;;;79.80;74.80;;;1.00;99.90;;;;;;5015898;28;20552;-78
2022/12/03 07:14:19;;;;;;;116.73;109.47;;;1.00;99.90;;;;;;5014643;28;20456;-78
2022/12/03 07:16:46;;;;;;;132.10;124.70;;;1.00;99.90;;;;;;5014808;28;20820;-77
2022/12/03 07:19:13;;;;;;;150.47;142.17;;;1.00;99.90;;;;;;5014639;28;20453;-78
2022/12/03 07:21:40;;;;;;;138.93;131.20;;;1.10;99.90;;;;;;5014937;28;20461;-78
2022/12/03 07:24:07;;;;;;;111.60;104.77;;;1.20;99.90;;;;;;5015104;28;20449;-79
2022/12/03 07:26:33;;;;;;;105.20;98.63;;;1.30;99.90;;;;;;5014806;28;20946;-78
2022/12/03 07:29:00;;;;;;;78.47;72.17;;;1.30;99.90;;;;;;5015253;28;20448;-78
2022/12/03 07:31:28;;;;;;;63.27;57.87;;;1.40;99.90;;;;;;5014414;28;20982;-79
2022/12/03 07:33:55;;;;;;;53.20;47.57;;;1.40;99.90;;;;;;5014655;28;20453;-78
2022/12/03 07:36:22;;;;;;;38.77;34.60;;;1.50;99.90;;;;;;5014999;28;20473;-78
2022/12/03 07:38:49;;;;;;;34.80;27.50;;;1.50;99.90;;;;;;5014659;28;20449;-77
2022/12/03 07:41:16;;;;;;;44.13;30.20;;;1.60;99.90;;;;;;5014689;28;20863;-78
2022/12/03 07:43:43;;;;;;;39.20;27.40;;;1.60;99.90;;;;;;5014669;28;20854;-78
2022/12/03 07:46:10;;;;;;;38.90;23.90;;;1.70;99.90;;;;;;5014658;28;20528;-78
2022/12/03 07:48:38;;;;;;;44.30;28.37;;;1.80;99.90;;;;;;5015574;28;20453;-77
2022/12/03 07:51:05;;;;;;;39.00;25.07;;;1.70;99.90;;;;;;5014441;28;20569;-78
2022/12/03 07:53:35;;;;;;;34.10;21.33;;;1.80;99.90;;;;;;5014148;28;20976;-78
2022/12/03 07:56:03;;;;;;;33.63;19.60;;;1.80;99.90;;;;;;5014719;28;20469;-78
2022/12/03 07:58:31;;;;;;;33.97;18.70;;;1.80;99.90;;;;;;5013680;28;20456;-79
2022/12/03 08:00:57;;;;;;;32.77;17.40;;;1.90;99.90;;;;;;5013875;28;20469;-78
2022/12/03 08:03:35;;;;;;;39.90;19.07;;;1.80;99.90;;;;;;5014639;28;20543;-79
2022/12/03 08:06:10;;;;;;;30.67;16.40;;;1.90;99.90;;;;;;5013486;28;21009;-79
2022/12/03 08:08:39;;;;;;;31.63;16.27;;;2.00;99.90;;;;;;5015152;28;20570;-79
2022/12/03 08:11:06;;;;;;;32.90;17.60;;;2.10;99.90;;;;;;5014857;28;20477;-80
2022/12/03 08:13:34;;;;;;;35.40;18.67;;;2.00;99.90;;;;;;5013748;28;20504;-79
2022/12/03 08:16:09;;;;;;;36.03;18.17;;;2.10;99.90;;;;;;5015340;28;20912;-80
2022/12/03 08:18:39;;;;;;;42.13;17.03;;;2.20;99.90;;;;;;5015273;28;20457;-79
2022/12/03 08:21:10;;;;;;;34.93;17.60;;;2.20;99.90;;;;;;5014350;28;20488;-80
2022/12/03 08:26:28;;;;;;;32.70;18.17;;;2.10;99.90;;;;;;5010877;28;20453;-79
2022/12/03 08:28:55;;;;;;;31.00;16.40;;;2.20;99.90;;;;;;5012652;28;20449;-79
2022/12/03 08:31:24;;;;;;;31.97;15.87;;;2.20;99.90;;;;;;5013889;28;20564;-79
2022/12/03 08:33:53;;;;;;;38.07;15.30;;;2.30;99.90;;;;;;5015594;28;20884;-80
2022/12/03 08:36:23;;;;;;;33.83;16.53;;;2.30;99.90;;;;;;5015883;28;20480;-78
2022/12/03 08:38:55;;;;;;;28.97;15.17;;;2.30;99.90;;;;;;5013536;28;20966;-79
2022/12/03 08:44:15;;;;;;;34.27;17.90;;;2.50;99.90;;;;;;5015513;28;20519;-81
2022/12/03 08:46:41;;;;;;;32.37;15.00;;;2.40;99.90;;;;;;5014452;28;20449;-80
2022/12/03 08:49:09;;;;;;;36.40;14.73;;;2.50;99.90;;;;;;5016755;28;20453;-79
2022/12/03 08:51:37;;;;;;;34.30;16.07;;;2.60;99.90;;;;;;5015228;28;20445;-80
2022/12/03 08:54:12;;;;;;;32.30;16.33;;;2.60;99.90;;;;;;5015550;28;20456;-79
2022/12/03 08:56:39;;;;;;;26.07;13.60;;;2.70;99.90;;;;;;5015218;28;20501;-80
2022/12/03 08:59:23;;;;;;;33.17;13.70;;;2.60;99.90;;;;;;5014816;28;20457;-80
2022/12/03 09:01:52;;;;;;;29.83;15.60;;;2.60;99.90;;;;;;5015020;28;20453;-79
2022/12/03 09:04:28;;;;;;;29.93;15.00;;;2.70;99.90;;;;;;5015264;28;20453;-79
2022/12/03 09:06:59;;;;;;;30.30;13.77;;;2.70;99.90;;;;;;4997308;28;20438;-79
2022/12/03 09:09:26;;;;;;;28.40;14.70;;;2.70;99.90;;;;;;4996605;28;20544;-80
2022/12/03 09:11:53;;;;;;;33.73;15.13;;;2.70;99.90;;;;;;5010619;28;20453;-79
2022/12/03 09:14:21;;;;;;;24.93;14.33;;;2.80;99.90;;;;;;5015131;28;20522;-80
2022/12/03 09:16:48;;;;;;;26.30;13.67;;;2.90;99.90;;;;;;5014023;28;20843;-79
2022/12/03 09:19:15;;;;;;;33.10;16.90;;;2.80;99.90;;;;;;5016704;28;20449;-82
2022/12/03 09:21:42;;;;;;;31.17;14.73;;;2.90;99.90;;;;;;5016425;28;20448;-80
2022/12/03 09:24:28;;;;;;;22.47;12.80;;;3.00;99.90;;;;;;4987223;28;20984;-80
2022/12/03 09:26:54;;;;;;;28.00;13.67;;;2.90;99.90;;;;;;4998303;28;20453;-80
2022/12/03 09:29:21;;;;;;;31.83;13.57;;;2.90;99.90;;;;;;5002596;28;20473;-80
2022/12/03 09:31:48;;;;;;;32.07;14.13;;;3.00;99.90;;;;;;5019145;28;20450;-80
2022/12/03 09:34:16;;;;;;;22.77;12.63;;;3.00;99.90;;;;;;5018852;28;20476;-80
2022/12/03 09:36:43;;;;;;;34.10;15.17;;;3.00;99.90;;;;;;5017796;28;20485;-81
2022/12/03 09:39:10;;;;;;;26.03;13.30;;;3.00;99.90;;;;;;5018522;28;20449;-81
2022/12/03 09:41:46;;;;;;;30.10;13.20;;;3.00;99.90;;;;;;5019077;28;20453;-81
2022/12/03 09:51:26;;;;;;;;;;;;;;;;;;;;;
2022/12/03 09:54:36;;;;;;;20.67;11.00;;;3.50;99.90;;;;;;5015897;28;20804;-83
2022/12/03 09:57:40;;;;;;;30.23;14.30;;;3.40;99.90;;;;;;5020412;28;20520;-83
2022/12/03 10:00:20;;;;;;;29.70;13.90;;;3.30;99.90;;;;;;5018221;28;20993;-82
2022/12/03 10:02:58;;;;;;;29.40;14.20;;;3.40;99.90;;;;;;5017562;28;20479;-82
2022/12/03 10:05:30;;;;;;;28.10;12.53;;;3.40;99.90;;;;;;5017720;28;20483;-82
2022/12/03 10:08:07;;;;;;;20.70;8.77;;;3.30;99.90;;;;;;5018396;28;20456;-82
2022/12/03 10:10:36;;;;;;;21.90;11.33;;;3.40;99.90;;;;;;5017781;28;20476;-80
2022/12/03 10:13:04;;;;;;;25.80;12.83;;;3.30;99.90;;;;;;5018909;28;20836;-80
2022/12/03 10:15:33;;;;;;;24.53;11.97;;;3.20;99.90;;;;;;5018827;28;20976;-82
2022/12/03 10:18:05;;;;;;;24.97;11.90;;;3.30;99.90;;;;;;5018825;28;20481;-82
2022/12/03 10:20:32;;;;;;;23.10;13.30;;;3.20;99.90;;;;;;5018464;28;20483;-82
2022/12/03 10:23:05;;;;;;;23.50;12.17;;;3.30;99.90;;;;;;5019043;28;20515;-81
2022/12/03 10:25:49;;;;;;;28.63;12.63;;;3.20;99.90;;;;;;5018594;28;20515;-82
2022/12/03 10:28:57;;;;;;;;;;;;;;;;;;;;;
2022/12/03 10:34:36;;;;;;;24.10;11.33;;;3.10;99.90;;;;;;5016870;28;20986;-82
2022/12/03 10:37:36;;;;;;;20.20;11.40;;;3.30;99.90;;;;;;5018943;28;20468;-82
2022/12/03 10:40:23;;;;;;;;;;;;;;;;;;;;;
2022/12/03 10:50:16;;;;;;;;;;;;;;;;;;;;;
2022/12/03 10:53:14;;;;;;;22.20;10.93;;;3.30;99.90;;;;;;5007905;28;20453;-82
2022/12/03 11:03:16;;;;;;;;;;;;;;;;;;;;;
2022/12/03 11:05:47;;;;;;;23.37;11.77;;;3.30;99.90;;;;;;5017153;28;20533;-81
2022/12/03 11:08:26;;;;;;;22.63;10.50;;;3.50;99.90;;;;;;5013489;28;20446;-82
2022/12/03 11:25:15;;;;;;;19.97;11.07;;;3.50;99.90;;;;;;4937552;29;20490;-82
2022/12/03 11:31:00;;;;;;;19.10;10.10;;;3.80;99.90;;;;;;4991973;23;20489;-82
2022/12/03 11:33:29;;;;;;;23.70;11.10;;;3.90;99.90;;;;;;5016571;28;20442;-83
2022/12/03 11:36:14;;;;;;;23.47;10.87;;;3.90;99.90;;;;;;5016770;28;20449;-83
2022/12/03 11:38:53;;;;;;;18.90;10.60;;;4.00;99.90;;;;;;5016887;28;21001;-83
2022/12/03 11:41:22;;;;;;;29.80;13.10;;;3.90;99.90;;;;;;5020374;28;20857;-83
2022/12/03 11:44:28;;;;;;;20.93;11.50;;;4.10;99.90;;;;;;5020599;28;20457;-83
2022/12/03 11:46:56;;;;;;;25.13;12.13;;;4.10;99.90;;;;;;5020559;28;20472;-83
2022/12/03 11:49:38;;;;;;;22.87;12.87;;;4.20;99.90;;;;;;5020755;28;20467;-83
2022/12/03 11:52:19;;;;;;;24.63;12.37;;;4.20;99.90;;;;;;5020559;28;20848;-83
2022/12/03 11:54:49;;;;;;;27.10;13.50;;;4.20;99.90;;;;;;5020582;28;20845;-83
2022/12/03 11:57:37;;;;;;;22.13;11.40;;;4.20;99.90;;;;;;5020477;28;21004;-83
2022/12/03 12:00:15;;;;;;;26.73;12.40;;;4.20;99.90;;;;;;5035443;28;20468;-82
2022/12/03 12:02:42;;;;;;;23.10;11.67;;;4.30;99.90;;;;;;5035828;28;20449;-82
2022/12/03 12:05:26;;;;;;;31.50;13.70;;;4.20;99.90;;;;;;5020334;28;20461;-83
2022/12/03 12:07:54;;;;;;;25.87;12.90;;;4.20;99.90;;;;;;5021464;28;20965;-83
2022/12/03 12:10:40;;;;;;;23.90;11.37;;;4.20;99.90;;;;;;5019168;28;20496;-83
2022/12/03 12:13:39;;;;;;;24.50;12.90;;;4.20;99.90;;;;;;5018467;28;20453;-83
2022/12/03 12:16:08;;;;;;;27.77;15.07;;;4.20;99.90;;;;;;5011564;28;20838;-82
2022/12/03 12:18:37;;;;;;;33.53;15.07;;;4.30;99.90;;;;;;5020037;28;20495;-83
2022/12/03 12:21:40;;;;;;;19.07;11.60;;;4.30;99.90;;;;;;5019400;28;20473;-83
2022/12/03 12:24:34;;;;;;;28.23;14.50;;;4.10;99.90;;;;;;5020521;28;20456;-83
2022/12/03 12:27:05;;;;;;;34.07;14.50;;;4.20;99.90;;;;;;5019738;28;20511;-84
2022/12/03 12:29:31;;;;;;;27.40;14.47;;;4.20;99.90;;;;;;5019965;28;20950;-83
2022/12/03 12:32:02;;;;;;;28.33;14.20;;;4.10;99.90;;;;;;5017667;28;20560;-83
2022/12/03 12:34:29;;;;;;;26.47;13.40;;;4.20;99.90;;;;;;5019655;28;20835;-83
2022/12/03 12:37:00;;;;;;;23.70;13.80;;;4.10;99.90;;;;;;5019884;28;20461;-83
2022/12/03 12:39:27;;;;;;;20.60;10.90;;;4.10;99.90;;;;;;5020130;28;20453;-83
2022/12/03 12:41:54;;;;;;;29.33;14.13;;;4.20;99.90;;;;;;5018680;28;20473;-83
2022/12/03 12:44:22;;;;;;;29.27;14.00;;;4.20;99.90;;;;;;5018628;28;20456;-83
2022/12/03 12:46:52;;;;;;;28.70;12.83;;;4.20;99.90;;;;;;5019417;28;20457;-83
2022/12/03 12:49:25;;;;;;;24.63;11.77;;;4.10;99.90;;;;;;5019579;28;20449;-83
2022/12/03 12:51:52;;;;;;;26.83;12.23;;;4.20;99.90;;;;;;5019113;28;20540;-83
2022/12/03 12:54:20;;;;;;;27.60;10.73;;;4.00;99.90;;;;;;5019210;28;20460;-83
2022/12/03 12:56:49;;;;;;;20.53;11.90;;;3.90;99.90;;;;;;5019830;28;20965;-83
2022/12/03 12:59:18;;;;;;;25.30;12.50;;;4.00;99.90;;;;;;5018132;28;20499;-83
2022/12/03 13:01:47;;;;;;;22.73;12.60;;;3.80;99.90;;;;;;5019155;28;20508;-83
2022/12/03 13:04:16;;;;;;;28.87;13.60;;;3.80;99.90;;;;;;5018395;28;20867;-83
2022/12/03 13:06:44;;;;;;;28.87;15.10;;;3.90;99.90;;;;;;5019033;28;20446;-83
2022/12/03 13:09:17;;;;;;;32.60;14.70;;;3.90;99.90;;;;;;5018336;28;20445;-83
2022/12/03 13:11:47;;;;;;;26.90;13.63;;;4.00;99.90;;;;;;5018027;28;20473;-83
2022/12/03 13:14:17;;;;;;;30.47;15.60;;;3.90;99.90;;;;;;5017766;28;20449;-83
2022/12/03 13:16:44;;;;;;;24.53;13.10;;;3.90;99.90;;;;;;5017830;28;20449;-83
2022/12/03 13:19:22;;;;;;;22.67;11.03;;;3.80;99.90;;;;;;5017243;28;20470;-83
2022/12/03 13:21:50;;;;;;;19.43;10.70;;;3.80;99.90;;;;;;5018684;28;20499;-83
2022/12/03 13:24:34;;;;;;;24.37;11.80;;;3.70;99.90;;;;;;5018001;28;20467;-83
2022/12/03 13:27:22;;;;;;;21.30;11.40;;;3.80;99.90;;;;;;5017725;28;20453;-83
2022/12/03 13:29:52;;;;;;;31.70;15.03;;;3.80;99.90;;;;;;5012462;28;20472;-83
2022/12/03 13:32:21;;;;;;;21.17;11.33;;;3.70;99.90;;;;;;5018407;28;20468;-82
2022/12/03 13:34:49;;;;;;;26.40;13.23;;;3.70;99.90;;;;;;5018519;28;20460;-83
2022/12/03 13:37:22;;;;;;;23.10;13.47;;;3.70;99.90;;;;;;5019613;28;20458;-83
2022/12/03 13:39:55;;;;;;;23.23;11.90;;;3.60;99.90;;;;;;5018615;28;20500;-83
2022/12/03 13:42:40;;;;;;;33.70;16.17;;;3.60;99.90;;;;;;5018384;28;20489;-83
2022/12/03 13:49:01;;;;;;;25.10;12.53;;;3.70;99.90;;;;;;5016331;28;20449;-83
2022/12/03 13:51:48;;;;;;;27.13;12.87;;;3.70;99.90;;;;;;4970837;28;20489;-83
2022/12/03 13:54:36;;;;;;;28.73;13.37;;;3.70;99.90;;;;;;4980347;28;20454;-83
2022/12/03 13:57:25;;;;;;;25.37;12.90;;;3.60;99.90;;;;;;5019080;28;20880;-83
2022/12/03 14:00:04;;;;;;;22.10;11.83;;;3.60;99.90;;;;;;5018771;28;20552;-83
2022/12/03 14:02:40;;;;;;;26.13;13.27;;;3.60;99.90;;;;;;4998225;28;20474;-83
2022/12/03 14:05:07;;;;;;;27.03;14.00;;;3.50;99.90;;;;;;5000307;28;20464;-83